Time;durP1;ratioP1;P1;durP2;ratioP2;P2;SDS_P1;SDS_P2;PMS_P1;PMS_P2;Temp;Humidity;BMP_temperature;BMP_pressure;BME280_temperature;BME280_humidity;BME280_pressure;Samples;Min_cycle;Max_cycle;Signal;HPM_P1;HPM_P2
2022/04/04 00:01:12;;;;;;;12.90;7.65;;;;;;;;;;5029727;28;20030;-77
2022/04/04 00:03:38;;;;;;;15.35;8.32;;;;;;;;;;5029925;28;20501;-76
2022/04/04 00:06:04;;;;;;;14.85;8.90;;;;;;;;;;5027491;28;20044;-76
2022/04/04 00:08:33;;;;;;;14.05;8.20;;;;;;;;;;5022660;28;20234;-79
2022/04/04 00:10:59;;;;;;;15.48;9.23;;;;;;;;;;5026151;28;20044;-79
2022/04/04 00:13:27;;;;;;;18.58;10.02;;;;;;;;;;5018920;28;20038;-76
2022/04/04 00:15:53;;;;;;;21.30;9.65;;;;;;;;;;5025279;28;20061;-77
2022/04/04 00:18:19;;;;;;;24.02;11.15;;;;;;;;;;5029687;28;20446;-78
2022/04/04 00:20:45;;;;;;;20.52;10.98;;;;;;;;;;5027971;28;20471;-78
2022/04/04 00:23:14;;;;;;;18.58;10.32;;;;;;;;;;5028914;28;20037;-78
2022/04/04 00:25:41;;;;;;;15.70;11.15;;;;;;;;;;5027694;28;20194;-78
2022/04/04 00:28:07;;;;;;;16.00;10.23;;;;;;;;;;5028561;28;20030;-77
2022/04/04 00:30:33;;;;;;;16.83;11.00;;;;;;;;;;5028585;28;20144;-80
2022/04/04 00:32:59;;;;;;;22.00;10.98;;;;;;;;;;5027679;28;20041;-77
2022/04/04 00:35:26;;;;;;;17.90;10.88;;;;;;;;;;5025776;28;20151;-75
2022/04/04 00:37:55;;;;;;;20.58;11.65;;;;;;;;;;5026290;28;20586;-77
2022/04/04 00:40:21;;;;;;;22.15;11.80;;;;;;;;;;5029762;28;20042;-77
2022/04/04 00:42:47;;;;;;;23.52;13.20;;;;;;;;;;5029875;28;20037;-77
2022/04/04 00:45:13;;;;;;;19.65;13.10;;;;;;;;;;5032164;28;20101;-78
2022/04/04 00:47:39;;;;;;;29.35;13.43;;;;;;;;;;5030889;28;20094;-77
2022/04/04 00:50:06;;;;;;;24.58;12.77;;;;;;;;;;5032139;28;20037;-77
2022/04/04 00:52:32;;;;;;;23.38;12.98;;;;;;;;;;5031939;28;20030;-77
2022/04/04 00:54:59;;;;;;;21.83;12.98;;;;;;;;;;5030670;28;20028;-78
2022/04/04 00:57:25;;;;;;;24.00;13.48;;;;;;;;;;5025661;28;20106;-78
2022/04/04 00:59:51;;;;;;;20.17;13.35;;;;;;;;;;5028460;28;20546;-80
2022/04/04 01:02:17;;;;;;;20.73;12.68;;;;;;;;;;5031495;28;20060;-76
2022/04/04 01:04:43;;;;;;;22.58;12.65;;;;;;;;;;5032366;28;20033;-78
2022/04/04 01:07:09;;;;;;;22.33;13.70;;;;;;;;;;5032731;28;20039;-74
2022/04/04 01:09:35;;;;;;;21.88;13.25;;;;;;;;;;5028891;28;20446;-77
2022/04/04 01:12:06;;;;;;;20.77;12.82;;;;;;;;;;5030119;28;20036;-78
2022/04/04 01:14:33;;;;;;;23.92;13.88;;;;;;;;;;5030960;28;20018;-78
2022/04/04 01:16:59;;;;;;;25.00;13.05;;;;;;;;;;5030089;28;20037;-79
2022/04/04 01:19:25;;;;;;;26.45;13.10;;;;;;;;;;5031808;28;20030;-78
2022/04/04 01:21:53;;;;;;;21.85;12.90;;;;;;;;;;5031372;28;20044;-80
2022/04/04 01:24:21;;;;;;;18.73;12.55;;;;;;;;;;5031345;28;20534;-78
2022/04/04 01:26:47;;;;;;;23.95;13.05;;;;;;;;;;5025212;28;20515;-78
2022/04/04 01:29:14;;;;;;;18.33;11.88;;;;;;;;;;5026882;28;20030;-77
2022/04/04 01:31:42;;;;;;;23.98;12.93;;;;;;;;;;5031449;28;20048;-76
2022/04/04 01:34:08;;;;;;;19.80;12.45;;;;;;;;;;5030365;28;20120;-78
2022/04/04 01:36:34;;;;;;;20.33;12.82;;;;;;;;;;5030020;28;20199;-78
2022/04/04 01:39:00;;;;;;;20.17;12.15;;;;;;;;;;5030044;28;20147;-77
2022/04/04 01:41:26;;;;;;;18.58;12.27;;;;;;;;;;5029358;28;20036;-77
2022/04/04 01:43:52;;;;;;;24.50;13.18;;;;;;;;;;5031928;28;20040;-77
2022/04/04 01:46:24;;;;;;;21.65;12.20;;;;;;;;;;5024475;28;20152;-78
2022/04/04 01:48:54;;;;;;;18.83;11.60;;;;;;;;;;5029744;28;20370;-77
2022/04/04 01:51:21;;;;;;;19.80;12.13;;;;;;;;;;5031920;28;20032;-79
2022/04/04 01:53:47;;;;;;;17.52;11.95;;;;;;;;;;5028467;28;20045;-81
2022/04/04 01:56:13;;;;;;;17.65;11.55;;;;;;;;;;5029086;28;20036;-75
2022/04/04 01:58:40;;;;;;;18.38;12.18;;;;;;;;;;5030795;28;20025;-79
2022/04/04 02:01:16;;;;;;;20.10;12.13;;;;;;;;;;5029208;28;20076;-77
2022/04/04 02:03:44;;;;;;;19.50;11.45;;;;;;;;;;5028367;28;20127;-79
2022/04/04 02:06:10;;;;;;;18.52;11.48;;;;;;;;;;5031580;28;20068;-78
2022/04/04 02:08:37;;;;;;;22.33;12.68;;;;;;;;;;5033212;28;20081;-76
2022/04/04 02:11:04;;;;;;;20.65;14.10;;;;;;;;;;5029578;28;20044;-76
2022/04/04 02:13:31;;;;;;;25.98;12.40;;;;;;;;;;5032938;28;20445;-75
2022/04/04 02:16:00;;;;;;;24.50;13.18;;;;;;;;;;5034718;28;20040;-76
2022/04/04 02:18:26;;;;;;;25.27;13.88;;;;;;;;;;5033423;28;20484;-77
2022/04/04 02:20:52;;;;;;;20.73;12.85;;;;;;;;;;5031510;28;20076;-76
2022/04/04 02:23:20;;;;;;;21.10;13.50;;;;;;;;;;5032962;28;20029;-79
2022/04/04 02:25:46;;;;;;;24.63;13.73;;;;;;;;;;5029570;28;20036;-76
2022/04/04 02:28:13;;;;;;;21.73;12.85;;;;;;;;;;5029709;28;20029;-80
2022/04/04 02:30:39;;;;;;;22.75;12.98;;;;;;;;;;5032836;28;20033;-78
2022/04/04 02:33:05;;;;;;;27.02;14.30;;;;;;;;;;5033125;28;20080;-78
2022/04/04 02:35:31;;;;;;;19.98;12.95;;;;;;;;;;5032714;28;20443;-79
2022/04/04 02:37:57;;;;;;;21.95;14.20;;;;;;;;;;5033611;28;20084;-74
2022/04/04 02:40:23;;;;;;;26.55;14.25;;;;;;;;;;5033983;28;20487;-74
2022/04/04 02:42:50;;;;;;;23.52;13.80;;;;;;;;;;5032257;28;20028;-78
2022/04/04 02:45:16;;;;;;;26.98;14.77;;;;;;;;;;5033289;28;20022;-77
2022/04/04 02:47:42;;;;;;;23.25;13.93;;;;;;;;;;5031483;28;20021;-76
2022/04/04 02:50:11;;;;;;;25.38;14.98;;;;;;;;;;5034911;28;20018;-72
2022/04/04 02:52:38;;;;;;;25.55;16.00;;;;;;;;;;5033706;28;20494;-75
2022/04/04 02:56:29;;;;;;;22.80;15.35;;;;;;;;;;5035011;28;20463;-77
2022/04/04 02:57:51;;;;;;;27.83;16.02;;;;;;;;;;5032924;28;20563;-77
2022/04/04 03:00:19;;;;;;;27.90;15.90;;;;;;;;;;5028105;28;20116;-77
2022/04/04 03:02:46;;;;;;;30.80;16.45;;;;;;;;;;5032101;28;20083;-78
2022/04/04 03:05:12;;;;;;;24.33;16.48;;;;;;;;;;5033337;28;20104;-75
2022/04/04 03:07:38;;;;;;;27.60;15.63;;;;;;;;;;5031923;28;20049;-78
2022/04/04 03:10:04;;;;;;;26.33;14.65;;;;;;;;;;5032901;28;20038;-77
2022/04/04 03:12:30;;;;;;;21.70;15.43;;;;;;;;;;5031798;28;20140;-80
2022/04/04 03:14:56;;;;;;;24.35;15.32;;;;;;;;;;5032971;28;20041;-78
2022/04/04 03:17:22;;;;;;;24.95;16.85;;;;;;;;;;5031504;28;20036;-78
2022/04/04 03:19:48;;;;;;;24.13;15.52;;;;;;;;;;5031778;28;20018;-76
2022/04/04 03:22:15;;;;;;;24.42;15.82;;;;;;;;;;5032742;28;20479;-78
2022/04/04 03:24:41;;;;;;;22.67;15.32;;;;;;;;;;5033803;28;20026;-78
2022/04/04 03:27:07;;;;;;;22.75;15.18;;;;;;;;;;5032926;28;20045;-78
2022/04/04 03:29:34;;;;;;;27.83;15.60;;;;;;;;;;5033038;28;20049;-77
2022/04/04 03:32:00;;;;;;;21.85;14.20;;;;;;;;;;5030980;28;20240;-79
2022/04/04 03:34:27;;;;;;;27.52;14.80;;;;;;;;;;5032995;28;20442;-76
2022/04/04 03:36:53;;;;;;;20.08;12.80;;;;;;;;;;5031792;28;20057;-80
2022/04/04 03:39:19;;;;;;;24.13;12.88;;;;;;;;;;5032204;28;20033;-80
2022/04/04 03:41:46;;;;;;;20.13;12.98;;;;;;;;;;5031762;28;20033;-77
2022/04/04 03:44:12;;;;;;;21.40;12.45;;;;;;;;;;5032038;28;20086;-76
2022/04/04 03:46:40;;;;;;;19.08;12.52;;;;;;;;;;5032162;28;20163;-76
2022/04/04 03:49:06;;;;;;;19.38;12.23;;;;;;;;;;5032699;28;20026;-76
2022/04/04 03:51:32;;;;;;;18.27;11.68;;;;;;;;;;5034474;28;20033;-79
2022/04/04 03:53:59;;;;;;;21.73;12.38;;;;;;;;;;5031143;28;20164;-76
2022/04/04 03:56:25;;;;;;;27.25;12.05;;;;;;;;;;5032813;28;20513;-75
2022/04/04 03:58:53;;;;;;;26.90;12.10;;;;;;;;;;5032283;28;20049;-77
2022/04/04 04:01:19;;;;;;;27.08;12.15;;;;;;;;;;5033382;28;20033;-75
2022/04/04 04:03:45;;;;;;;20.58;12.57;;;;;;;;;;5030698;28;20136;-74
2022/04/04 04:06:12;;;;;;;22.35;11.75;;;;;;;;;;5031205;28;20053;-74
2022/04/04 04:08:42;;;;;;;22.73;11.40;;;;;;;;;;5033397;28;20116;-76
2022/04/04 04:11:08;;;;;;;18.13;10.95;;;;;;;;;;5032543;28;20068;-76
2022/04/04 04:13:36;;;;;;;16.85;11.80;;;;;;;;;;5031613;28;20475;-78
2022/04/04 04:16:02;;;;;;;15.95;11.02;;;;;;;;;;5031563;28;20100;-79
2022/04/04 04:18:29;;;;;;;25.77;10.75;;;;;;;;;;5033300;28;20463;-78
2022/04/04 04:20:55;;;;;;;18.85;11.30;;;;;;;;;;5032835;28;20037;-77
2022/04/04 04:23:21;;;;;;;22.60;11.60;;;;;;;;;;5030452;28;20041;-78
2022/04/04 04:25:48;;;;;;;18.70;10.30;;;;;;;;;;5031304;28;20033;-78
2022/04/04 04:28:15;;;;;;;18.42;11.30;;;;;;;;;;5032703;28;20025;-79
2022/04/04 04:30:41;;;;;;;19.42;11.35;;;;;;;;;;5031359;28;20044;-77
2022/04/04 04:33:07;;;;;;;18.80;10.60;;;;;;;;;;5032058;28;20037;-78
2022/04/04 04:35:34;;;;;;;20.65;10.90;;;;;;;;;;5031701;28;20026;-77
2022/04/04 04:38:00;;;;;;;23.17;11.23;;;;;;;;;;5030309;28;20033;-80
2022/04/04 04:40:27;;;;;;;17.90;10.57;;;;;;;;;;5029549;28;20427;-77
2022/04/04 04:42:54;;;;;;;23.42;11.23;;;;;;;;;;5028109;28;20037;-76
2022/04/04 04:45:20;;;;;;;20.63;10.73;;;;;;;;;;5029910;28;20033;-78
2022/04/04 04:47:47;;;;;;;23.15;10.63;;;;;;;;;;5029651;28;20066;-77
2022/04/04 04:50:14;;;;;;;22.50;10.73;;;;;;;;;;5027834;28;20022;-78
2022/04/04 04:52:41;;;;;;;21.23;9.95;;;;;;;;;;5025967;28;20060;-77
2022/04/04 04:55:07;;;;;;;17.90;9.57;;;;;;;;;;5029164;28;20030;-77
2022/04/04 04:57:34;;;;;;;21.45;10.48;;;;;;;;;;5027938;28;20117;-79
2022/04/04 05:00:03;;;;;;;19.85;10.52;;;;;;;;;;5029561;28;20034;-78
2022/04/04 05:02:29;;;;;;;26.58;12.13;;;;;;;;;;5025963;28;20079;-76
2022/04/04 05:04:55;;;;;;;22.65;11.77;;;;;;;;;;5029459;28;20030;-78
2022/04/04 05:07:21;;;;;;;16.45;10.23;;;;;;;;;;5029779;28;20049;-78
2022/04/04 05:09:47;;;;;;;23.98;10.07;;;;;;;;;;5030535;28;20498;-75
2022/04/04 05:12:13;;;;;;;20.95;10.85;;;;;;;;;;5030251;28;20044;-77
2022/04/04 05:14:42;;;;;;;18.45;9.48;;;;;;;;;;5029379;28;20049;-76
2022/04/04 05:17:09;;;;;;;19.70;9.38;;;;;;;;;;5028472;28;20079;-76
2022/04/04 05:19:35;;;;;;;18.80;10.45;;;;;;;;;;5029096;28;20123;-79
2022/04/04 05:22:01;;;;;;;15.50;9.35;;;;;;;;;;5030990;28;20443;-78
2022/04/04 05:24:27;;;;;;;20.20;9.63;;;;;;;;;;5033098;28;20103;-77
2022/04/04 05:26:54;;;;;;;21.15;9.50;;;;;;;;;;5033687;28;20029;-76
2022/04/04 05:29:20;;;;;;;13.07;8.88;;;;;;;;;;5032931;28;20060;-75
2022/04/04 05:31:46;;;;;;;17.00;9.00;;;;;;;;;;5031908;28;20075;-78
2022/04/04 05:34:13;;;;;;;18.73;9.00;;;;;;;;;;5032056;28;20033;-79
2022/04/04 05:36:39;;;;;;;16.65;9.27;;;;;;;;;;5032734;28;20037;-77
2022/04/04 05:39:06;;;;;;;17.08;9.30;;;;;;;;;;5030982;28;20329;-74
2022/04/04 05:41:36;;;;;;;22.05;10.45;;;;;;;;;;5028486;28;20025;-74
2022/04/04 05:44:03;;;;;;;21.23;9.82;;;;;;;;;;5034523;28;20029;-76
2022/04/04 05:46:30;;;;;;;23.92;10.60;;;;;;;;;;5032538;28;20029;-78
2022/04/04 05:48:56;;;;;;;17.67;10.27;;;;;;;;;;5031712;28;20030;-78
2022/04/04 05:51:22;;;;;;;19.45;10.27;;;;;;;;;;5029551;28;20084;-76
2022/04/04 05:53:50;;;;;;;19.00;10.48;;;;;;;;;;5028680;28;20034;-80
2022/04/04 05:56:16;;;;;;;26.20;11.60;;;;;;;;;;5032871;28;20045;-77
2022/04/04 05:58:42;;;;;;;17.55;9.90;;;;;;;;;;5030230;28;20092;-77
2022/04/04 06:01:09;;;;;;;23.27;10.77;;;;;;;;;;5027702;28;20022;-77
2022/04/04 06:03:36;;;;;;;18.15;11.30;;;;;;;;;;5028006;28;20410;-77
2022/04/04 06:06:02;;;;;;;20.15;11.60;;;;;;;;;;5029908;28;20483;-78
2022/04/04 06:08:29;;;;;;;25.63;12.30;;;;;;;;;;5030128;28;20399;-80
2022/04/04 06:10:55;;;;;;;27.15;10.80;;;;;;;;;;5032974;28;20037;-77
2022/04/04 06:13:21;;;;;;;29.08;12.43;;;;;;;;;;5032104;28;20086;-78
2022/04/04 06:15:47;;;;;;;19.08;10.73;;;;;;;;;;5032564;28;20037;-76
2022/04/04 06:18:14;;;;;;;23.90;11.85;;;;;;;;;;5026668;28;20046;-74
2022/04/04 06:20:41;;;;;;;21.60;11.93;;;;;;;;;;5030307;28;20474;-76
2022/04/04 06:23:07;;;;;;;19.95;12.75;;;;;;;;;;5031386;28;20035;-79
2022/04/04 06:25:34;;;;;;;22.58;10.90;;;;;;;;;;5031772;28;20173;-77
2022/04/04 06:28:00;;;;;;;21.52;12.88;;;;;;;;;;5030517;28;20087;-77
2022/04/04 06:30:27;;;;;;;20.92;13.00;;;;;;;;;;5033156;28;20043;-78
2022/04/04 06:32:53;;;;;;;20.17;12.98;;;;;;;;;;5031996;28;20025;-78
2022/04/04 06:35:19;;;;;;;18.73;12.63;;;;;;;;;;5033053;28;20030;-80
2022/04/04 06:37:46;;;;;;;24.85;14.68;;;;;;;;;;5031677;28;20034;-78
2022/04/04 06:40:13;;;;;;;23.58;14.60;;;;;;;;;;5033494;28;20059;-77
2022/04/04 06:42:40;;;;;;;30.77;15.95;;;;;;;;;;5032827;28;20072;-76
2022/04/04 06:45:07;;;;;;;26.65;15.68;;;;;;;;;;5033933;28;20025;-77
2022/04/04 06:47:33;;;;;;;28.83;16.58;;;;;;;;;;5035532;28;20056;-75
2022/04/04 06:50:00;;;;;;;30.90;17.45;;;;;;;;;;5032071;28;20049;-77
2022/04/04 06:52:26;;;;;;;24.00;15.80;;;;;;;;;;5028371;28;20381;-73
2022/04/04 06:54:55;;;;;;;25.70;15.95;;;;;;;;;;5023614;28;20053;-77
2022/04/04 06:57:22;;;;;;;25.45;16.20;;;;;;;;;;5034251;28;20495;-76
2022/04/04 06:59:48;;;;;;;21.83;15.05;;;;;;;;;;5033772;28;20486;-76
2022/04/04 07:02:14;;;;;;;25.02;15.23;;;;;;;;;;5031187;28;20037;-79
2022/04/04 07:04:41;;;;;;;22.67;14.45;;;;;;;;;;5034112;28;20104;-77
2022/04/04 07:07:08;;;;;;;32.95;14.52;;;;;;;;;;5012441;28;20029;-75
2022/04/04 07:09:34;;;;;;;26.45;13.25;;;;;;;;;;5033590;28;20041;-79
2022/04/04 07:12:01;;;;;;;27.40;14.00;;;;;;;;;;5032558;28;20072;-77
2022/04/04 07:14:28;;;;;;;24.55;12.60;;;;;;;;;;5031597;28;20042;-77
2022/04/04 07:16:54;;;;;;;25.20;13.18;;;;;;;;;;5031837;28;20044;-75
2022/04/04 07:19:22;;;;;;;24.40;14.25;;;;;;;;;;5032919;28;20093;-74
2022/04/04 07:21:48;;;;;;;23.15;13.23;;;;;;;;;;5030303;28;20471;-75
2022/04/04 07:24:14;;;;;;;27.42;15.20;;;;;;;;;;5029608;28;20048;-75
2022/04/04 07:26:40;;;;;;;24.88;14.55;;;;;;;;;;5031400;28;20037;-77
2022/04/04 07:29:06;;;;;;;23.77;15.38;;;;;;;;;;5026860;28;20033;-78
2022/04/04 07:31:32;;;;;;;29.17;14.15;;;;;;;;;;5027211;28;20026;-77
2022/04/04 07:33:58;;;;;;;23.92;15.32;;;;;;;;;;5030002;28;20045;-76
2022/04/04 07:36:25;;;;;;;26.33;15.60;;;;;;;;;;5028071;28;20072;-76
2022/04/04 07:38:52;;;;;;;25.35;14.75;;;;;;;;;;5026276;28;20116;-76
2022/04/04 07:41:18;;;;;;;33.47;16.95;;;;;;;;;;5028485;28;20029;-78
2022/04/04 07:43:44;;;;;;;24.67;16.15;;;;;;;;;;5031017;28;20041;-75
2022/04/04 07:46:10;;;;;;;27.05;16.48;;;;;;;;;;5030710;28;20517;-78
2022/04/04 07:48:38;;;;;;;22.85;15.32;;;;;;;;;;5032312;28;20067;-77
2022/04/04 07:51:04;;;;;;;26.30;15.68;;;;;;;;;;5023705;28;20128;-78
2022/04/04 07:53:30;;;;;;;27.48;16.80;;;;;;;;;;5032131;28;20041;-77
2022/04/04 07:55:56;;;;;;;31.20;16.67;;;;;;;;;;5031539;28;20199;-79
2022/04/04 07:58:22;;;;;;;31.05;18.90;;;;;;;;;;5031297;28;20072;-79
2022/04/04 08:00:48;;;;;;;33.72;19.27;;;;;;;;;;5031457;28;20029;-76
2022/04/04 08:03:15;;;;;;;33.05;20.35;;;;;;;;;;5029897;28;20146;-75
2022/04/04 08:05:41;;;;;;;34.53;18.33;;;;;;;;;;5030873;28;20127;-75
2022/04/04 08:08:07;;;;;;;26.88;14.82;;;;;;;;;;5030870;28;20041;-76
2022/04/04 08:10:33;;;;;;;24.13;12.95;;;;;;;;;;5023262;28;20034;-76
2022/04/04 08:13:00;;;;;;;20.48;12.73;;;;;;;;;;5030657;28;20047;-77
2022/04/04 08:15:27;;;;;;;23.10;12.63;;;;;;;;;;5030616;28;20038;-76
2022/04/04 08:17:53;;;;;;;25.10;11.82;;;;;;;;;;5031970;28;20087;-77
2022/04/04 08:20:19;;;;;;;15.27;10.18;;;;;;;;;;5033425;28;20026;-75
2022/04/04 08:22:46;;;;;;;26.20;11.80;;;;;;;;;;5026270;28;20410;-77
2022/04/04 08:25:12;;;;;;;21.88;12.27;;;;;;;;;;5029907;28;20443;-76
2022/04/04 08:27:40;;;;;;;23.98;13.05;;;;;;;;;;5028228;28;20141;-79
2022/04/04 08:30:07;;;;;;;21.00;12.80;;;;;;;;;;5031023;28;20037;-75
2022/04/04 08:32:36;;;;;;;24.10;12.40;;;;;;;;;;5028728;28;20048;-78
2022/04/04 08:35:02;;;;;;;15.35;11.07;;;;;;;;;;5030010;28;20072;-77
2022/04/04 08:37:28;;;;;;;20.60;10.80;;;;;;;;;;5030129;28;20029;-73
2022/04/04 08:39:54;;;;;;;21.00;10.57;;;;;;;;;;5030434;28;20120;-74
2022/04/04 08:42:26;;;;;;;22.00;10.88;;;;;;;;;;5029552;28;20101;-74
2022/04/04 08:44:54;;;;;;;17.52;10.88;;;;;;;;;;5026515;28;20119;-77
2022/04/04 08:47:20;;;;;;;18.83;10.52;;;;;;;;;;5029938;28;20769;-75
2022/04/04 08:49:47;;;;;;;19.30;11.10;;;;;;;;;;5028798;28;20164;-76
2022/04/04 08:52:15;;;;;;;19.23;10.18;;;;;;;;;;5028380;28;20064;-78
2022/04/04 08:54:41;;;;;;;22.92;11.15;;;;;;;;;;5029014;28;20109;-78
2022/04/04 08:57:07;;;;;;;26.85;12.90;;;;;;;;;;5029814;28;20566;-77
2022/04/04 08:59:34;;;;;;;23.52;14.25;;;;;;;;;;5025320;28;20131;-75
2022/04/04 09:02:00;;;;;;;26.75;13.98;;;;;;;;;;5029569;28;20029;-76
2022/04/04 09:04:26;;;;;;;30.17;13.15;;;;;;;;;;5029180;28;20041;-78
2022/04/04 09:06:57;;;;;;;29.15;14.43;;;;;;;;;;5028635;28;20084;-75
2022/04/04 09:09:23;;;;;;;24.95;14.27;;;;;;;;;;5031911;28;20052;-76
2022/04/04 09:11:51;;;;;;;26.83;13.25;;;;;;;;;;5030760;28;20056;-77
2022/04/04 09:14:21;;;;;;;23.08;13.38;;;;;;;;;;5028822;28;20140;-75
2022/04/04 09:16:56;;;;;;;33.88;13.95;;;;;;;;;;5029320;28;20029;-76
2022/04/04 09:19:29;;;;;;;32.03;12.63;;;;;;;;;;5029362;28;20878;-75
2022/04/04 09:21:56;;;;;;;20.25;11.85;;;;;;;;;;5029655;28;20527;-77
2022/04/04 09:24:42;;;;;;;21.55;11.27;;;;;;;;;;5029719;28;20108;-76
2022/04/04 09:27:18;;;;;;;24.40;11.55;;;;;;;;;;5030305;28;20026;-75
2022/04/04 09:29:46;;;;;;;26.13;11.73;;;;;;;;;;5029057;28;20029;-76
2022/04/04 09:32:15;;;;;;;32.50;12.25;;;;;;;;;;5031210;28;20060;-78
2022/04/04 09:35:01;;;;;;;24.58;12.40;;;;;;;;;;5032438;28;20041;-76
2022/04/04 09:37:29;;;;;;;23.63;12.88;;;;;;;;;;5032151;28;20028;-79
2022/04/04 09:40:03;;;;;;;22.08;12.55;;;;;;;;;;5032771;28;20169;-77
2022/04/04 09:42:31;;;;;;;22.15;11.18;;;;;;;;;;5034818;28;20234;-78
2022/04/04 09:45:05;;;;;;;18.33;10.18;;;;;;;;;;5033308;28;20036;-75
2022/04/04 09:47:48;;;;;;;23.38;10.77;;;;;;;;;;5032245;28;20025;-77
2022/04/04 09:50:37;;;;;;;18.38;10.50;;;;;;;;;;5029654;28;20025;-77
2022/04/04 09:53:07;;;;;;;20.63;8.88;;;;;;;;;;5026971;28;20505;-76
2022/04/04 09:55:36;;;;;;;18.73;8.60;;;;;;;;;;5029405;28;20657;-76
2022/04/04 09:58:04;;;;;;;10.88;6.25;;;;;;;;;;5031082;28;20163;-72
2022/04/04 10:00:30;;;;;;;12.25;5.70;;;;;;;;;;5030979;28;20121;-73
2022/04/04 10:02:57;;;;;;;12.13;6.95;;;;;;;;;;5033661;28;20029;-74
2022/04/04 10:05:27;;;;;;;13.23;7.85;;;;;;;;;;5035778;28;20058;-75
2022/04/04 10:07:57;;;;;;;18.40;8.00;;;;;;;;;;5032200;28;20034;-75
2022/04/04 10:10:27;;;;;;;11.68;5.90;;;;;;;;;;5034361;28;20031;-76
2022/04/04 10:12:54;;;;;;;13.52;6.82;;;;;;;;;;5034309;28;20034;-76
2022/04/04 10:15:20;;;;;;;15.75;8.27;;;;;;;;;;5032954;28;20508;-75
2022/04/04 10:17:48;;;;;;;13.68;7.03;;;;;;;;;;5036762;28;20136;-75
2022/04/04 10:20:14;;;;;;;17.25;8.18;;;;;;;;;;5032443;28;20113;-76
2022/04/04 10:22:40;;;;;;;18.27;7.70;;;;;;;;;;5034865;28;20053;-74
2022/04/04 10:25:07;;;;;;;10.43;6.35;;;;;;;;;;5032448;28;20061;-76
2022/04/04 10:27:37;;;;;;;15.38;7.50;;;;;;;;;;5032744;28;20060;-76
2022/04/04 10:30:05;;;;;;;14.00;6.88;;;;;;;;;;5027744;28;20193;-76
2022/04/04 10:32:32;;;;;;;17.63;7.13;;;;;;;;;;5034996;28;20075;-75
2022/04/04 10:34:58;;;;;;;11.88;6.35;;;;;;;;;;5033087;28;20049;-76
2022/04/04 10:37:31;;;;;;;19.25;8.60;;;;;;;;;;5032173;28;20038;-75
2022/04/04 10:39:57;;;;;;;13.57;7.13;;;;;;;;;;5032764;28;20455;-77
2022/04/04 10:42:23;;;;;;;18.25;6.63;;;;;;;;;;5032025;28;20037;-75
2022/04/04 10:44:50;;;;;;;15.20;7.10;;;;;;;;;;5032097;28;20025;-76
2022/04/04 10:47:19;;;;;;;12.40;5.85;;;;;;;;;;5032612;28;20034;-77
2022/04/04 10:49:46;;;;;;;8.25;5.80;;;;;;;;;;5031067;28;20029;-78
2022/04/04 10:52:14;;;;;;;17.65;6.95;;;;;;;;;;5032128;28;20196;-79
2022/04/04 10:54:40;;;;;;;11.77;6.20;;;;;;;;;;5029968;28;20033;-76
2022/04/04 10:57:15;;;;;;;10.68;5.85;;;;;;;;;;5029559;28;20049;-78
2022/04/04 10:59:45;;;;;;;11.50;6.18;;;;;;;;;;5032636;28;20527;-77
2022/04/04 11:02:11;;;;;;;14.05;7.45;;;;;;;;;;5031354;28;20029;-77
2022/04/04 11:04:37;;;;;;;13.30;8.43;;;;;;;;;;5030556;28;20124;-76
2022/04/04 11:09:51;;;;;;;18.33;9.80;;;;;;;;;;5033588;28;20103;-76
2022/04/04 11:12:18;;;;;;;11.55;8.70;;;;;;;;;;5032795;28;20036;-76
2022/04/04 11:14:54;;;;;;;16.58;9.55;;;;;;;;;;5031907;28;20252;-77
2022/04/04 11:17:29;;;;;;;14.15;9.20;;;;;;;;;;5027348;28;20069;-76
2022/04/04 11:20:38;;;;;;;22.20;10.98;;;;;;;;;;5028581;28;20465;-77
2022/04/04 11:22:57;;;;;;;15.13;9.68;;;;;;;;;;5028855;28;20037;-75
2022/04/04 11:25:29;;;;;;;18.92;12.38;;;;;;;;;;5030916;28;20033;-77
2022/04/04 11:27:57;;;;;;;16.80;12.68;;;;;;;;;;5026372;28;20495;-76
2022/04/04 11:30:27;;;;;;;16.92;12.57;;;;;;;;;;5026657;28;20034;-77
2022/04/04 11:32:54;;;;;;;15.90;11.88;;;;;;;;;;5031393;28;20039;-77
2022/04/04 11:35:27;;;;;;;16.25;12.00;;;;;;;;;;5027196;28;20109;-75
2022/04/04 11:38:00;;;;;;;13.27;11.70;;;;;;;;;;5028733;28;20490;-78
2022/04/04 11:40:34;;;;;;;14.65;11.23;;;;;;;;;;5027358;28;20116;-74
2022/04/04 11:43:02;;;;;;;16.13;11.20;;;;;;;;;;5027768;28;20037;-77
2022/04/04 11:45:30;;;;;;;14.13;10.40;;;;;;;;;;5029576;28;20046;-77
2022/04/04 11:47:57;;;;;;;17.33;10.93;;;;;;;;;;5028859;28;20026;-79
2022/04/04 11:50:26;;;;;;;13.10;10.65;;;;;;;;;;5024906;28;20029;-76
2022/04/04 11:52:54;;;;;;;16.67;12.07;;;;;;;;;;5030128;28;20566;-76
2022/04/04 11:55:21;;;;;;;15.77;10.80;;;;;;;;;;5033380;28;20058;-76
2022/04/04 11:57:49;;;;;;;14.20;10.90;;;;;;;;;;5033118;28;20089;-78
2022/04/04 12:00:26;;;;;;;14.13;9.23;;;;;;;;;;5033748;28;20066;-77
2022/04/04 12:02:53;;;;;;;12.30;9.98;;;;;;;;;;5019779;28;20526;-75
2022/04/04 12:05:23;;;;;;;14.45;8.25;;;;;;;;;;5034137;28;20487;-75
2022/04/04 12:07:50;;;;;;;14.83;9.00;;;;;;;;;;5036097;28;20040;-80
2022/04/04 12:10:30;;;;;;;12.65;8.55;;;;;;;;;;5036126;28;20315;-76
2022/04/04 12:12:59;;;;;;;12.60;7.82;;;;;;;;;;5037411;28;20025;-77
2022/04/04 12:15:36;;;;;;;10.48;7.80;;;;;;;;;;5036971;28;20029;-74
2022/04/04 12:18:03;;;;;;;8.75;7.18;;;;;;;;;;5036465;28;20070;-78
2022/04/04 12:20:36;;;;;;;13.55;7.20;;;;;;;;;;5035391;28;20067;-76
2022/04/04 12:25:47;;;;;;;8.63;5.70;;;;;;;;;;5036045;28;20480;-73
2022/04/04 12:28:22;;;;;;;6.95;5.28;;;;;;;;;;5035739;28;20053;-76
2022/04/04 12:30:48;;;;;;;7.07;5.38;;;;;;;;;;5034982;28;20097;-74
2022/04/04 12:33:15;;;;;;;8.32;4.78;;;;;;;;;;5035782;28;20518;-74
2022/04/04 12:35:48;;;;;;;10.15;5.00;;;;;;;;;;5035663;28;20034;-76
2022/04/04 12:38:29;;;;;;;6.45;3.75;;;;;;;;;;5035629;28;20124;-77
2022/04/04 12:41:05;;;;;;;6.03;3.90;;;;;;;;;;5036312;28;20055;-78
2022/04/04 12:43:31;;;;;;;7.80;3.90;;;;;;;;;;5031568;28;20029;-81
2022/04/04 12:45:57;;;;;;;3.90;3.50;;;;;;;;;;5036963;28;20005;-77
2022/04/04 12:48:31;;;;;;;6.40;3.47;;;;;;;;;;5036568;28;20033;-75
2022/04/04 12:50:58;;;;;;;4.68;3.35;;;;;;;;;;5032958;28;20033;-77
2022/04/04 12:53:26;;;;;;;6.15;3.33;;;;;;;;;;5033171;28;20596;-76
2022/04/04 12:56:03;;;;;;;5.85;3.38;;;;;;;;;;5030925;28;20044;-76
2022/04/04 12:58:29;;;;;;;5.85;3.50;;;;;;;;;;5037041;28;20041;-77
2022/04/04 13:00:55;;;;;;;5.45;3.17;;;;;;;;;;5031765;28;20068;-75
2022/04/04 13:03:25;;;;;;;4.68;3.78;;;;;;;;;;5033768;28;20025;-74
2022/04/04 13:05:56;;;;;;;7.63;3.50;;;;;;;;;;5030957;28;20036;-76
2022/04/04 13:08:22;;;;;;;8.55;4.03;;;;;;;;;;5034853;28;20035;-76
2022/04/04 13:11:03;;;;;;;5.53;3.65;;;;;;;;;;5032210;28;20021;-76
2022/04/04 13:13:29;;;;;;;11.48;7.47;;;;;;;;;;5033355;28;20034;-78
2022/04/04 13:15:55;;;;;;;13.93;10.40;;;;;;;;;;5031408;28;20128;-76
2022/04/04 13:18:21;;;;;;;5.60;4.82;;;;;;;;;;5031218;28;20537;-76
2022/04/04 13:20:47;;;;;;;5.22;4.72;;;;;;;;;;5031403;28;20048;-77
2022/04/04 13:23:14;;;;;;;6.28;4.43;;;;;;;;;;5033358;28;20013;-76
2022/04/04 13:25:40;;;;;;;7.22;4.88;;;;;;;;;;5033669;28;20032;-76
2022/04/04 13:28:10;;;;;;;5.38;4.70;;;;;;;;;;5030878;28;20057;-76
2022/04/04 13:30:36;;;;;;;7.93;4.82;;;;;;;;;;5033569;28;20018;-78
2022/04/04 13:33:03;;;;;;;5.68;4.57;;;;;;;;;;5031617;28;20052;-77
2022/04/04 13:35:29;;;;;;;5.50;4.50;;;;;;;;;;5031686;28;20048;-77
2022/04/04 13:37:55;;;;;;;7.10;5.07;;;;;;;;;;5015049;28;20087;-75
2022/04/04 13:40:21;;;;;;;8.75;5.68;;;;;;;;;;5029669;28;20034;-78
2022/04/04 13:42:47;;;;;;;5.97;5.38;;;;;;;;;;5032309;28;20037;-77
2022/04/04 13:45:13;;;;;;;7.13;6.43;;;;;;;;;;5031158;28;20042;-79
2022/04/04 13:47:39;;;;;;;9.88;6.35;;;;;;;;;;5030801;28;20043;-75
2022/04/04 13:50:05;;;;;;;9.25;6.68;;;;;;;;;;5030478;28;20037;-78
2022/04/04 13:52:31;;;;;;;11.07;7.43;;;;;;;;;;5029172;28;20308;-76
2022/04/04 13:54:58;;;;;;;13.23;8.75;;;;;;;;;;5025904;28;20033;-76
2022/04/04 13:57:24;;;;;;;12.38;9.07;;;;;;;;;;5028309;28;20052;-77
2022/04/04 13:59:50;;;;;;;10.98;9.05;;;;;;;;;;5026343;28;20040;-77
2022/04/04 14:02:17;;;;;;;13.95;10.40;;;;;;;;;;5027182;28;20112;-77
2022/04/04 14:04:43;;;;;;;18.23;10.55;;;;;;;;;;5030225;28;20475;-80
2022/04/04 14:07:10;;;;;;;18.50;12.55;;;;;;;;;;5029087;28;20113;-79
2022/04/04 14:09:36;;;;;;;22.60;13.07;;;;;;;;;;5030254;28;20036;-76
2022/04/04 14:12:03;;;;;;;20.52;13.85;;;;;;;;;;5029132;28;20432;-78
2022/04/04 14:14:30;;;;;;;22.33;15.50;;;;;;;;;;5028167;28;20033;-78
2022/04/04 14:16:57;;;;;;;27.02;16.80;;;;;;;;;;5028373;28;20123;-77
2022/04/04 14:19:24;;;;;;;34.05;18.13;;;;;;;;;;5011636;28;20494;-78
2022/04/04 14:21:50;;;;;;;39.55;19.58;;;;;;;;;;5029962;28;20034;-78
2022/04/04 14:24:17;;;;;;;37.30;20.13;;;;;;;;;;5030986;28;20159;-77
2022/04/04 14:26:44;;;;;;;36.28;20.15;;;;;;;;;;5030992;28;20029;-75
2022/04/04 14:29:10;;;;;;;38.78;20.88;;;;;;;;;;5034361;28;20037;-77